Time;durP1;ratioP1;P1;durP2;ratioP2;P2;SDS_P1;SDS_P2;PMS_P1;PMS_P2;Temp;Humidity;BMP_temperature;BMP_pressure;BME280_temperature;BME280_humidity;BME280_pressure;Samples;Min_cycle;Max_cycle;Signal;HPM_P1;HPM_P2
2023/03/01 00:00:13;;;;;;;5.20;4.80;;;-3.60;86.70;;;;;;4955940;28;20486;-56
2023/03/01 00:02:40;;;;;;;7.43;5.83;;;-3.50;99.90;;;;;;4956179;28;20501;-56
2023/03/01 00:05:08;;;;;;;5.87;4.97;;;-3.30;99.90;;;;;;4955441;28;20541;-55
2023/03/01 00:07:34;;;;;;;6.50;3.97;;;-3.40;22.60;;;;;;4956088;29;20455;-56
2023/03/01 00:10:01;;;;;;;5.37;4.87;;;-3.50;25.50;;;;;;4953549;28;20525;-56
2023/03/01 00:12:29;;;;;;;5.50;4.90;;;-3.50;23.30;;;;;;4952326;28;20512;-56
2023/03/01 00:14:55;;;;;;;7.17;4.67;;;-3.50;24.90;;;;;;4952651;29;20546;-55
2023/03/01 00:17:22;;;;;;;5.33;4.83;;;-3.50;22.70;;;;;;4955698;28;20451;-55
2023/03/01 00:19:48;;;;;;;6.07;5.10;;;-3.50;28.40;;;;;;4954699;29;20534;-56
2023/03/01 00:22:15;;;;;;;5.40;4.83;;;-3.60;21.80;;;;;;4955856;28;20458;-56
2023/03/01 00:24:42;;;;;;;9.13;5.43;;;-3.50;99.90;;;;;;4949213;28;20994;-55
2023/03/01 00:27:08;;;;;;;5.33;4.70;;;-3.40;73.60;;;;;;4945257;28;20474;-56
2023/03/01 00:29:36;;;;;;;5.27;4.77;;;-3.50;23.30;;;;;;4952338;28;20470;-55
2023/03/01 00:32:03;;;;;;;5.10;4.60;;;-3.60;81.70;;;;;;4954508;28;20467;-56
2023/03/01 00:34:29;;;;;;;6.00;4.80;;;-3.70;72.30;;;;;;4951805;28;20487;-55
2023/03/01 00:37:05;;;;;;;7.73;5.10;;;-3.70;22.40;;;;;;4953145;28;20833;-55
2023/03/01 00:39:33;;;;;;;6.90;5.20;;;-3.70;23.20;;;;;;4952949;29;20486;-55
2023/03/01 00:42:00;;;;;;;5.90;5.40;;;-3.80;27.60;;;;;;4952008;28;20463;-55
2023/03/01 00:44:28;;;;;;;5.40;4.90;;;-3.80;25.20;;;;;;4949142;28;20487;-55
2023/03/01 00:46:55;;;;;;;7.63;6.70;;;-3.90;22.90;;;;;;4953144;29;21024;-55
2023/03/01 00:49:24;;;;;;;13.03;10.13;;;-3.90;22.40;;;;;;4953403;28;20463;-55
2023/03/01 00:51:50;;;;;;;12.17;9.53;;;-3.90;23.90;;;;;;4953848;28;20477;-54
2023/03/01 00:54:17;;;;;;;16.27;13.00;;;-3.90;23.00;;;;;;4955216;28;20451;-54
2023/03/01 00:56:43;;;;;;;16.43;12.60;;;-3.80;21.10;;;;;;4954754;29;20521;-56
2023/03/01 00:59:10;;;;;;;14.47;11.00;;;-3.90;24.20;;;;;;4952872;28;20988;-54
2023/03/01 01:01:37;;;;;;;14.90;10.77;;;-3.80;99.90;;;;;;4948673;28;20538;-55
2023/03/01 01:04:07;;;;;;;14.63;9.83;;;-3.90;20.30;;;;;;4954402;29;20900;-54
2023/03/01 01:06:36;;;;;;;19.67;14.00;;;-3.90;22.90;;;;;;4955087;28;20451;-56
2023/03/01 01:09:04;;;;;;;18.60;15.43;;;-4.00;23.50;;;;;;4953765;29;20489;-57
2023/03/01 01:11:31;;;;;;;18.33;14.13;;;-4.00;23.40;;;;;;4954826;28;20471;-55
2023/03/01 01:13:58;;;;;;;12.33;9.60;;;-4.10;24.40;;;;;;4954327;29;20451;-54
2023/03/01 01:16:27;;;;;;;8.93;7.90;;;-4.10;23.40;;;;;;4939726;28;20495;-51
2023/03/01 01:18:54;;;;;;;7.50;6.80;;;-4.00;89.00;;;;;;4942175;29;20483;-52
2023/03/01 01:21:24;;;;;;;7.63;6.93;;;-4.10;98.60;;;;;;4953194;28;20526;-53
2023/03/01 01:23:51;;;;;;;8.00;7.20;;;-4.00;99.90;;;;;;4952957;28;20470;-54
2023/03/01 01:26:20;;;;;;;8.13;7.17;;;-4.00;99.90;;;;;;4953635;28;20487;-53
2023/03/01 01:28:47;;;;;;;8.13;6.17;;;-4.10;74.50;;;;;;4953229;28;20470;-52
2023/03/01 01:31:14;;;;;;;8.03;6.03;;;-4.20;20.80;;;;;;4948830;28;20476;-52
2023/03/01 01:33:40;;;;;;;6.03;5.53;;;-4.20;74.00;;;;;;4949334;28;20462;-52
2023/03/01 01:36:08;;;;;;;7.73;6.27;;;-4.00;99.90;;;;;;4951898;28;20482;-52
2023/03/01 01:38:38;;;;;;;7.47;6.63;;;-4.10;99.90;;;;;;4952412;29;20525;-54
2023/03/01 01:41:05;;;;;;;5.63;5.03;;;-4.20;99.90;;;;;;4954805;28;20483;-52
2023/03/01 01:43:35;;;;;;;5.93;5.13;;;-4.20;99.90;;;;;;4951206;28;21300;-52
2023/03/01 01:46:04;;;;;;;6.90;5.07;;;-4.20;99.90;;;;;;4948372;28;20479;-54
2023/03/01 01:48:41;;;;;;;5.03;4.60;;;-4.10;99.90;;;;;;4947116;28;20467;-54
2023/03/01 01:51:10;;;;;;;7.30;5.37;;;-4.10;99.90;;;;;;4949658;29;20529;-53
2023/03/01 01:53:40;;;;;;;5.90;4.60;;;-4.20;99.90;;;;;;4949301;28;20521;-52
2023/03/01 01:56:10;;;;;;;7.70;5.10;;;-4.30;99.90;;;;;;4952248;28;20856;-52
2023/03/01 01:58:38;;;;;;;7.00;5.23;;;-4.30;90.00;;;;;;4951869;28;20464;-52
2023/03/01 02:01:05;;;;;;;7.97;4.60;;;-4.40;99.90;;;;;;4952042;28;20504;-52
2023/03/01 02:03:37;;;;;;;4.90;4.40;;;-4.40;99.90;;;;;;4951668;28;20525;-52
2023/03/01 02:06:06;;;;;;;6.57;4.80;;;-4.40;99.90;;;;;;4952091;28;20565;-54
2023/03/01 02:08:37;;;;;;;8.73;4.63;;;-4.40;88.50;;;;;;4952012;28;20598;-52
2023/03/01 02:11:05;;;;;;;4.60;4.20;;;-4.40;99.90;;;;;;4953571;28;20471;-53
2023/03/01 02:13:33;;;;;;;4.80;4.03;;;-4.50;99.90;;;;;;4949542;28;20526;-53
2023/03/01 02:16:00;;;;;;;5.70;5.20;;;-4.40;99.90;;;;;;4951009;28;20498;-54
2023/03/01 02:18:27;;;;;;;5.93;4.53;;;-4.50;99.90;;;;;;4951886;28;20525;-52
2023/03/01 02:21:06;;;;;;;5.27;4.77;;;-4.50;99.90;;;;;;4950627;28;20486;-52
2023/03/01 02:23:34;;;;;;;4.97;4.47;;;-4.50;99.90;;;;;;4948002;29;20913;-53
2023/03/01 02:26:13;;;;;;;5.10;4.17;;;-4.60;99.90;;;;;;4952672;28;20542;-52
2023/03/01 02:28:43;;;;;;;4.43;4.03;;;-4.60;99.90;;;;;;4950580;29;20473;-52
2023/03/01 02:33:56;;;;;;;5.43;4.90;;;-4.50;99.90;;;;;;4949556;28;20454;-52
2023/03/01 02:36:27;;;;;;;4.40;4.00;;;-4.60;99.90;;;;;;4947849;28;20993;-54
2023/03/01 02:38:57;;;;;;;4.90;4.40;;;-4.60;99.90;;;;;;4949780;28;20514;-53
2023/03/01 02:41:27;;;;;;;4.77;4.37;;;-4.60;99.90;;;;;;4951530;28;20996;-53
2023/03/01 02:43:55;;;;;;;4.93;4.27;;;-4.60;99.90;;;;;;4949997;28;20467;-53
2023/03/01 02:46:25;;;;;;;5.47;4.97;;;-4.40;99.90;;;;;;4953180;28;20467;-52
2023/03/01 02:48:53;;;;;;;7.70;4.90;;;-4.50;99.90;;;;;;4951887;29;20542;-52
2023/03/01 02:51:42;;;;;;;4.60;4.20;;;-4.40;99.90;;;;;;4950248;28;20467;-52
2023/03/01 02:54:18;;;;;;;5.17;4.43;;;-4.40;99.90;;;;;;4946734;29;20466;-52
2023/03/01 02:56:48;;;;;;;5.93;4.33;;;-4.40;99.90;;;;;;4950290;28;20462;-53
2023/03/01 02:59:17;;;;;;;4.57;4.23;;;-4.50;99.90;;;;;;4945768;29;20474;-53
2023/03/01 03:01:43;;;;;;;5.80;4.60;;;-4.50;99.90;;;;;;4942635;28;20467;-52
2023/03/01 03:04:16;;;;;;;6.80;5.20;;;-4.60;99.90;;;;;;4950215;29;20489;-53
2023/03/01 03:06:43;;;;;;;5.50;4.10;;;-4.70;99.90;;;;;;4951994;28;21035;-53
2023/03/01 03:09:10;;;;;;;5.00;4.50;;;-4.70;99.90;;;;;;4950641;28;20526;-53
2023/03/01 03:11:39;;;;;;;5.17;4.33;;;-4.70;99.90;;;;;;4950437;28;20827;-53
2023/03/01 03:14:12;;;;;;;7.13;4.03;;;-4.70;99.90;;;;;;4951735;29;20518;-52
2023/03/01 03:16:41;;;;;;;5.63;4.90;;;-4.70;99.90;;;;;;4948429;29;20463;-51
2023/03/01 03:19:07;;;;;;;4.83;4.40;;;-4.70;99.90;;;;;;4952100;29;20522;-53
2023/03/01 03:21:34;;;;;;;5.03;4.53;;;-4.80;94.40;;;;;;4952380;28;20992;-52
2023/03/01 03:24:00;;;;;;;4.53;4.10;;;-4.80;99.90;;;;;;4954198;28;20451;-52
2023/03/01 03:26:27;;;;;;;4.80;3.97;;;-4.80;99.90;;;;;;4953933;28;20490;-51
2023/03/01 03:28:53;;;;;;;6.07;4.50;;;-4.80;99.90;;;;;;4961511;28;20509;-53
2023/03/01 03:31:20;;;;;;;4.43;4.13;;;-4.80;99.90;;;;;;4956073;28;20832;-52
2023/03/01 03:33:48;;;;;;;5.20;4.70;;;-4.80;99.90;;;;;;4962162;28;20559;-52
2023/03/01 03:36:17;;;;;;;5.93;4.83;;;-4.80;99.90;;;;;;4956630;28;20530;-54
2023/03/01 03:38:45;;;;;;;7.73;4.97;;;-4.80;99.90;;;;;;4952354;28;20964;-54
2023/03/01 03:41:13;;;;;;;5.47;4.93;;;-4.80;99.90;;;;;;4951131;29;20482;-52
2023/03/01 03:43:42;;;;;;;5.63;5.13;;;-4.80;79.90;;;;;;4956024;28;20512;-52
2023/03/01 03:46:09;;;;;;;5.10;4.70;;;-4.90;99.90;;;;;;4957087;28;20482;-52
2023/03/01 03:48:37;;;;;;;5.70;4.93;;;-4.90;99.90;;;;;;4954484;28;21039;-54
2023/03/01 03:51:06;;;;;;;9.07;5.77;;;-4.90;99.90;;;;;;4953473;29;20518;-53
2023/03/01 03:53:33;;;;;;;7.67;5.90;;;-4.90;84.10;;;;;;4953336;29;21027;-53
2023/03/01 03:56:00;;;;;;;13.47;6.17;;;-5.00;81.10;;;;;;4952657;28;20547;-53
2023/03/01 03:58:27;;;;;;;6.80;6.10;;;-5.00;99.90;;;;;;4954083;28;20462;-53
2023/03/01 04:00:56;;;;;;;6.37;5.70;;;-4.80;99.90;;;;;;4954454;29;20565;-53
2023/03/01 04:03:24;;;;;;;5.67;5.13;;;-4.90;99.90;;;;;;4954572;29;20477;-53
2023/03/01 04:05:51;;;;;;;6.90;5.43;;;-5.00;99.90;;;;;;4957249;28;20544;-53
2023/03/01 04:08:21;;;;;;;5.37;4.87;;;-4.90;99.90;;;;;;4952440;28;20521;-53
2023/03/01 04:10:49;;;;;;;5.70;5.10;;;-5.00;99.90;;;;;;4945483;28;20598;-54
2023/03/01 04:13:19;;;;;;;5.00;4.60;;;-5.10;99.90;;;;;;4951083;29;20482;-53
2023/03/01 04:15:46;;;;;;;6.87;6.07;;;-5.10;99.90;;;;;;4952942;28;20553;-53
2023/03/01 04:18:14;;;;;;;15.83;9.40;;;-5.10;99.90;;;;;;4954832;28;20467;-53
2023/03/01 04:20:41;;;;;;;40.57;23.17;;;-5.10;99.90;;;;;;4954393;29;20549;-53
2023/03/01 04:23:13;;;;;;;42.07;22.53;;;-5.10;99.90;;;;;;4953308;29;20467;-53
2023/03/01 04:25:43;;;;;;;31.20;16.50;;;-5.10;99.90;;;;;;4953820;29;20489;-53
2023/03/01 04:28:10;;;;;;;22.80;14.60;;;-5.10;99.90;;;;;;4950100;28;20478;-53
2023/03/01 04:30:38;;;;;;;23.13;13.80;;;-5.10;99.90;;;;;;4951054;29;20898;-54
2023/03/01 04:33:05;;;;;;;25.00;14.27;;;-5.10;99.90;;;;;;4954522;28;20470;-53
2023/03/01 04:35:32;;;;;;;19.93;12.40;;;-5.20;99.90;;;;;;4951703;28;20783;-54
2023/03/01 04:37:59;;;;;;;23.53;13.20;;;-5.20;99.90;;;;;;4951862;28;20467;-52
2023/03/01 04:40:26;;;;;;;21.10;13.00;;;-5.20;99.90;;;;;;4954588;29;20487;-53
2023/03/01 04:42:54;;;;;;;18.80;12.10;;;-5.20;99.90;;;;;;4948771;28;20825;-52
2023/03/01 04:45:21;;;;;;;14.00;10.80;;;-5.20;99.90;;;;;;4952675;28;20545;-52
2023/03/01 04:47:47;;;;;;;13.03;9.67;;;-5.10;99.90;;;;;;4953916;28;20466;-53
2023/03/01 04:50:20;;;;;;;6.17;5.57;;;-5.10;99.90;;;;;;4952839;28;20459;-53
2023/03/01 04:52:47;;;;;;;8.53;6.13;;;-5.10;99.90;;;;;;4954482;28;20547;-54
2023/03/01 04:55:14;;;;;;;5.30;4.80;;;-5.10;99.90;;;;;;4954812;28;21047;-51
2023/03/01 04:57:41;;;;;;;4.70;4.37;;;-5.00;99.90;;;;;;4955080;28;20513;-53
2023/03/01 05:00:20;;;;;;;5.33;4.83;;;-5.00;99.90;;;;;;4949796;28;20494;-52
2023/03/01 05:02:52;;;;;;;7.57;5.00;;;-5.10;99.90;;;;;;4955276;28;20538;-52
2023/03/01 05:05:20;;;;;;;6.20;5.23;;;-5.20;99.90;;;;;;4954735;29;20470;-52
2023/03/01 05:07:47;;;;;;;6.87;6.20;;;-5.20;99.90;;;;;;4953906;29;20493;-51
2023/03/01 05:10:14;;;;;;;6.70;6.10;;;-5.30;99.90;;;;;;4954005;28;20521;-52
2023/03/01 05:12:40;;;;;;;6.17;5.57;;;-5.30;99.90;;;;;;4949448;28;20829;-52
2023/03/01 05:15:08;;;;;;;6.30;5.70;;;-5.40;91.60;;;;;;4955723;28;20499;-53
2023/03/01 05:17:36;;;;;;;10.20;6.40;;;-5.30;99.90;;;;;;4954810;28;20450;-53
2023/03/01 05:20:06;;;;;;;6.17;5.40;;;-5.30;99.90;;;;;;4949938;28;20471;-53
2023/03/01 05:22:33;;;;;;;6.53;5.90;;;-5.30;99.90;;;;;;4950263;28;20981;-53
2023/03/01 05:25:00;;;;;;;7.53;5.37;;;-5.30;99.90;;;;;;4950636;28;20541;-53
2023/03/01 05:27:26;;;;;;;5.73;5.23;;;-5.20;99.90;;;;;;4954534;28;20510;-53
2023/03/01 05:29:53;;;;;;;7.43;6.00;;;-5.30;99.90;;;;;;4948476;28;20871;-53
2023/03/01 05:32:19;;;;;;;7.50;6.20;;;-5.30;99.90;;;;;;4946608;28;20510;-54
2023/03/01 05:34:47;;;;;;;7.53;6.23;;;-5.20;99.90;;;;;;4950486;29;20482;-53
2023/03/01 05:37:14;;;;;;;8.70;6.50;;;-5.20;80.60;;;;;;4948483;28;20475;-53
2023/03/01 05:39:41;;;;;;;7.53;6.70;;;-5.20;89.10;;;;;;4936237;28;20467;-53
2023/03/01 05:42:11;;;;;;;8.70;6.97;;;-5.20;99.90;;;;;;4942482;28;20494;-53
2023/03/01 05:44:38;;;;;;;8.00;5.93;;;-5.20;99.90;;;;;;4948389;29;20996;-53
2023/03/01 05:47:05;;;;;;;6.07;5.57;;;-5.20;99.90;;;;;;4946798;28;20864;-53
2023/03/01 05:49:32;;;;;;;6.67;6.00;;;-5.30;99.90;;;;;;4948423;29;20468;-53
2023/03/01 05:52:00;;;;;;;9.13;6.97;;;-5.30;99.90;;;;;;4952798;29;20447;-53
2023/03/01 05:54:27;;;;;;;6.07;5.57;;;-5.30;96.50;;;;;;4952152;28;20487;-53
2023/03/01 05:56:53;;;;;;;6.70;5.83;;;-5.30;99.90;;;;;;4952600;28;20470;-53
2023/03/01 05:59:20;;;;;;;6.73;6.10;;;-5.30;99.90;;;;;;4952416;29;20518;-53
2023/03/01 06:01:46;;;;;;;6.37;5.70;;;-5.30;99.90;;;;;;4950625;28;20491;-52
2023/03/01 06:04:13;;;;;;;6.27;5.67;;;-5.20;99.90;;;;;;4948021;28;20886;-53
2023/03/01 06:06:40;;;;;;;6.87;5.60;;;-5.20;99.90;;;;;;4951572;28;20463;-52
2023/03/01 06:09:09;;;;;;;4.83;4.40;;;-5.20;99.90;;;;;;4953486;29;20954;-52
2023/03/01 06:11:37;;;;;;;7.77;7.07;;;-5.20;99.90;;;;;;4944581;28;20471;-52
2023/03/01 06:14:04;;;;;;;6.57;5.90;;;-5.20;99.90;;;;;;4948546;29;20466;-52
2023/03/01 06:16:30;;;;;;;10.80;8.10;;;-5.20;99.90;;;;;;4950089;28;20479;-52
2023/03/01 06:18:57;;;;;;;11.30;7.50;;;-5.10;99.90;;;;;;4953619;28;20957;-52
2023/03/01 06:21:24;;;;;;;9.80;7.80;;;-5.10;99.90;;;;;;4948612;28;20924;-52
2023/03/01 06:23:51;;;;;;;9.83;7.30;;;-5.10;80.00;;;;;;4949107;28;20467;-52
2023/03/01 06:26:19;;;;;;;15.90;11.90;;;-5.10;23.60;;;;;;4951614;28;20547;-52
2023/03/01 06:28:46;;;;;;;29.27;19.03;;;-5.10;22.30;;;;;;4951880;29;20467;-51
2023/03/01 06:31:13;;;;;;;31.52;22.05;;;-5.00;21.40;;;;;;4948068;28;20528;-53
2023/03/01 06:33:39;;;;;;;25.00;18.60;;;-4.90;85.00;;;;;;4947521;28;20206;-54
2023/03/01 06:36:07;;;;;;;19.80;15.30;;;-4.90;79.30;;;;;;4947677;28;20495;-55
2023/03/01 06:38:34;;;;;;;19.60;15.80;;;-4.80;89.30;;;;;;4938420;28;20474;-53
2023/03/01 06:41:01;;;;;;;20.57;14.40;;;-4.70;85.00;;;;;;4942880;28;20483;-54
2023/03/01 06:43:29;;;;;;;17.67;13.63;;;-4.50;87.60;;;;;;4946089;28;20530;-52
2023/03/01 06:45:55;;;;;;;20.13;13.70;;;-4.30;21.10;;;;;;4941573;28;20498;-53
2023/03/01 06:48:22;;;;;;;17.40;12.47;;;-4.20;32.60;;;;;;4950048;28;20962;-53
2023/03/01 06:50:48;;;;;;;17.07;12.50;;;-4.10;37.60;;;;;;4950149;28;20541;-52
2023/03/01 06:53:15;;;;;;;13.73;11.17;;;-4.00;36.20;;;;;;4947353;28;20467;-52
2023/03/01 06:55:42;;;;;;;17.67;10.80;;;-3.90;33.40;;;;;;4948838;28;20502;-53
2023/03/01 06:58:10;;;;;;;11.43;9.30;;;-3.80;29.90;;;;;;4942781;28;20466;-53
2023/03/01 07:00:40;;;;;;;12.17;9.03;;;-3.60;27.50;;;;;;4949635;28;20497;-54
2023/03/01 07:03:07;;;;;;;10.17;9.00;;;-3.50;35.50;;;;;;4943954;28;20465;-54
2023/03/01 07:05:34;;;;;;;10.97;9.13;;;-3.40;37.00;;;;;;4942625;28;20511;-52
2023/03/01 07:08:01;;;;;;;10.20;8.97;;;-3.10;46.10;;;;;;4956336;28;20525;-53
2023/03/01 07:10:27;;;;;;;12.00;8.33;;;-3.00;51.50;;;;;;4952783;28;20463;-50
2023/03/01 07:12:56;;;;;;;10.47;7.83;;;-2.90;55.00;;;;;;4946583;29;20538;-51
2023/03/01 07:15:23;;;;;;;9.57;8.57;;;-2.70;63.90;;;;;;4954202;28;20499;-50
2023/03/01 07:17:50;;;;;;;11.33;8.47;;;-2.50;70.00;;;;;;4948033;28;20584;-50
2023/03/01 07:20:17;;;;;;;18.83;8.50;;;-2.40;74.80;;;;;;4952042;28;21245;-51
2023/03/01 07:22:44;;;;;;;12.70;9.00;;;-2.50;68.30;;;;;;4954053;28;20569;-50
2023/03/01 07:25:11;;;;;;;10.77;7.90;;;-2.50;58.40;;;;;;4941233;28;20542;-50
2023/03/01 07:27:38;;;;;;;8.77;6.90;;;-2.40;55.20;;;;;;4944705;28;20548;-50
2023/03/01 07:30:05;;;;;;;9.83;8.77;;;-2.40;55.90;;;;;;4950279;28;20549;-50
2023/03/01 07:32:32;;;;;;;10.87;9.73;;;-2.20;60.40;;;;;;4953121;29;20462;-51
2023/03/01 07:35:00;;;;;;;14.50;11.47;;;-1.90;72.30;;;;;;4943329;28;21052;-52
2023/03/01 07:37:27;;;;;;;15.80;13.27;;;-1.60;64.10;;;;;;4953243;28;20470;-51
2023/03/01 07:39:53;;;;;;;33.33;16.30;;;-1.30;69.40;;;;;;4954513;28;20867;-50
2023/03/01 07:42:20;;;;;;;36.30;24.07;;;-1.00;76.20;;;;;;4954462;29;20917;-50
2023/03/01 07:44:46;;;;;;;41.10;26.50;;;-0.80;99.90;;;;;;4954595;28;20471;-50
2023/03/01 07:47:13;;;;;;;37.43;24.67;;;-0.30;99.90;;;;;;4946679;28;20458;-50
2023/03/01 07:49:40;;;;;;;46.67;29.77;;;0.00;99.90;;;;;;4947965;28;20523;-51
2023/03/01 07:52:10;;;;;;;65.23;40.53;;;0.50;99.90;;;;;;4944832;28;21008;-51
2023/03/01 07:54:37;;;;;;;41.30;26.37;;;0.40;99.90;;;;;;4948612;28;20621;-50
2023/03/01 07:57:04;;;;;;;30.77;19.57;;;0.60;99.90;;;;;;4951353;29;20868;-51
2023/03/01 07:59:31;;;;;;;26.03;18.17;;;0.80;99.90;;;;;;4950921;28;20456;-51
2023/03/01 08:01:59;;;;;;;21.93;17.47;;;0.90;98.00;;;;;;4946991;28;20480;-51
2023/03/01 08:04:26;;;;;;;22.17;16.27;;;1.60;52.60;;;;;;4948095;28;20490;-52
2023/03/01 08:06:53;;;;;;;19.60;15.73;;;1.90;65.70;;;;;;4947204;28;20462;-52
2023/03/01 08:09:21;;;;;;;22.40;17.43;;;2.10;70.20;;;;;;4947332;29;20488;-50
2023/03/01 08:11:47;;;;;;;20.57;15.27;;;2.50;89.30;;;;;;4947885;28;20451;-52
2023/03/01 08:14:14;;;;;;;16.30;12.63;;;3.00;99.90;;;;;;4959206;28;20446;-50
2023/03/01 08:16:40;;;;;;;18.93;13.50;;;3.30;99.90;;;;;;4944878;28;20468;-51
2023/03/01 08:19:08;;;;;;;23.50;12.13;;;3.10;99.90;;;;;;4949575;29;20905;-51
2023/03/01 08:21:35;;;;;;;18.40;12.80;;;3.20;99.90;;;;;;4945934;28;20490;-51
2023/03/01 08:24:02;;;;;;;14.60;11.47;;;3.60;99.90;;;;;;4951859;29;20840;-51
2023/03/01 08:26:30;;;;;;;19.60;11.10;;;3.60;99.90;;;;;;4944871;28;20542;-51
2023/03/01 08:28:57;;;;;;;16.87;10.17;;;3.90;99.90;;;;;;4949921;28;20467;-50
2023/03/01 08:31:26;;;;;;;18.17;10.33;;;4.10;99.90;;;;;;4940634;28;20472;-50
2023/03/01 08:33:55;;;;;;;14.53;9.60;;;4.10;99.90;;;;;;4942675;28;20467;-52
2023/03/01 08:36:23;;;;;;;17.30;10.80;;;3.70;99.90;;;;;;4945707;28;20613;-50
2023/03/01 08:38:50;;;;;;;17.87;11.40;;;3.80;99.90;;;;;;4949864;28;20498;-51
2023/03/01 08:41:16;;;;;;;15.63;10.37;;;3.80;99.90;;;;;;4940940;28;20525;-52
2023/03/01 08:43:44;;;;;;;18.50;10.90;;;3.60;99.90;;;;;;4937098;28;20470;-50
2023/03/01 08:46:12;;;;;;;18.03;9.50;;;3.90;99.90;;;;;;4943272;28;20495;-51
2023/03/01 08:48:39;;;;;;;15.13;8.17;;;4.00;99.90;;;;;;4949097;28;20834;-50
2023/03/01 08:51:09;;;;;;;8.60;7.70;;;4.30;99.90;;;;;;4947324;28;20467;-51
2023/03/01 08:53:35;;;;;;;17.63;8.30;;;4.60;99.90;;;;;;4944853;28;20471;-50
2023/03/01 08:56:03;;;;;;;10.10;6.70;;;4.70;99.90;;;;;;4941300;28;20490;-50
2023/03/01 08:58:29;;;;;;;14.10;7.00;;;5.20;99.90;;;;;;4949250;28;20470;-50
2023/03/01 09:00:58;;;;;;;9.10;6.80;;;5.30;1.40;;;;;;4946578;28;20452;-50
2023/03/01 09:03:25;;;;;;;9.97;6.77;;;5.00;99.90;;;;;;4952473;28;20567;-49
2023/03/01 09:05:52;;;;;;;9.50;5.83;;;4.90;99.90;;;;;;4948720;28;20909;-50
2023/03/01 09:08:19;;;;;;;10.80;8.30;;;5.30;1.40;;;;;;4952230;28;20981;-55
2023/03/01 09:10:46;;;;;;;8.70;6.50;;;5.30;99.90;;;;;;4952910;28;20459;-55
2023/03/01 09:13:12;;;;;;;14.97;6.37;;;6.00;99.90;;;;;;4947779;28;20459;-54
2023/03/01 09:15:39;;;;;;;11.30;6.90;;;6.60;99.90;;;;;;4954737;28;20478;-54
2023/03/01 09:18:07;;;;;;;12.67;6.77;;;7.10;99.90;;;;;;4943608;28;20589;-55
2023/03/01 09:20:33;;;;;;;6.43;4.67;;;7.70;99.90;;;;;;4949714;28;20470;-55
2023/03/01 09:23:00;;;;;;;8.43;5.27;;;7.70;99.90;;;;;;4945539;29;20557;-56
2023/03/01 09:25:28;;;;;;;7.50;4.60;;;8.70;99.90;;;;;;4941297;28;20549;-55
2023/03/01 09:27:55;;;;;;;6.43;5.17;;;8.70;99.90;;;;;;4949586;29;20466;-55
2023/03/01 09:30:24;;;;;;;16.90;5.00;;;8.50;99.90;;;;;;4943317;28;20466;-55
2023/03/01 09:32:50;;;;;;;17.43;7.00;;;9.50;99.90;;;;;;4946384;28;20467;-55
2023/03/01 09:35:19;;;;;;;7.07;4.40;;;8.90;99.90;;;;;;4942347;28;20483;-54
2023/03/01 09:37:46;;;;;;;4.13;3.80;;;8.60;99.90;;;;;;4947978;28;20554;-55
2023/03/01 09:40:17;;;;;;;5.20;4.70;;;10.40;99.90;;;;;;4936335;28;20570;-54
2023/03/01 09:42:55;;;;;;;5.03;4.27;;;9.60;99.90;;;;;;4944649;28;20487;-55
2023/03/01 09:45:30;;;;;;;7.97;5.00;;;9.50;99.90;;;;;;4936896;28;20487;-56
2023/03/01 09:47:57;;;;;;;8.73;4.33;;;9.60;99.90;;;;;;4947779;28;20521;-55
2023/03/01 09:50:28;;;;;;;5.90;4.23;;;9.70;99.90;;;;;;4941722;28;20467;-55
2023/03/01 09:53:01;;;;;;;6.17;4.60;;;11.00;99.90;;;;;;4942352;28;20456;-54
2023/03/01 09:55:34;;;;;;;10.40;4.40;;;9.90;99.90;;;;;;4941820;28;20482;-54
2023/03/01 09:58:07;;;;;;;5.33;4.07;;;11.40;99.90;;;;;;4943780;29;20468;-55
2023/03/01 10:00:39;;;;;;;6.67;5.30;;;11.40;99.90;;;;;;4951989;28;20467;-56
2023/03/01 10:03:17;;;;;;;5.10;4.27;;;11.80;99.90;;;;;;4938146;28;20523;-57
2023/03/01 10:05:52;;;;;;;6.50;4.83;;;10.60;99.90;;;;;;4941595;28;20482;-56
2023/03/01 10:08:41;;;;;;;5.50;4.70;;;9.80;99.90;;;;;;4942019;28;20455;-57
2023/03/01 10:11:20;;;;;;;5.90;3.70;;;9.50;99.90;;;;;;4941812;28;20471;-56
2023/03/01 10:13:53;;;;;;;4.37;3.93;;;10.30;99.90;;;;;;4942856;29;20518;-57
2023/03/01 10:16:25;;;;;;;4.47;4.00;;;10.60;99.90;;;;;;4940923;28;20486;-56
2023/03/01 10:18:55;;;;;;;6.87;5.50;;;10.10;99.90;;;;;;4940016;28;20476;-57
2023/03/01 10:21:24;;;;;;;13.30;10.10;;;9.90;99.90;;;;;;4934531;28;20515;-56
2023/03/01 10:23:53;;;;;;;10.40;7.23;;;10.70;99.90;;;;;;4942565;28;20486;-56
2023/03/01 10:26:49;;;;;;;3.83;3.53;;;11.90;99.90;;;;;;4936345;28;20483;-56
2023/03/01 10:29:16;;;;;;;5.20;3.13;;;12.40;99.90;;;;;;4940674;28;20459;-55
2023/03/01 10:31:45;;;;;;;4.67;3.83;;;10.90;99.90;;;;;;4940850;28;20525;-56
2023/03/01 10:34:15;;;;;;;3.00;2.77;;;10.50;99.90;;;;;;4945883;28;20953;-56
2023/03/01 10:36:44;;;;;;;3.67;3.10;;;10.70;99.90;;;;;;4943457;28;20471;-57
2023/03/01 10:39:20;;;;;;;3.50;3.30;;;10.60;99.90;;;;;;4935177;28;20464;-55
2023/03/01 10:42:01;;;;;;;3.77;3.47;;;10.00;99.90;;;;;;4940448;28;21012;-55
2023/03/01 10:44:45;;;;;;;5.20;3.43;;;9.30;99.90;;;;;;4954208;28;20527;-54
2023/03/01 10:47:20;;;;;;;5.97;4.27;;;10.20;99.90;;;;;;4951716;28;20463;-55
2023/03/01 10:50:01;;;;;;;4.60;3.63;;;10.60;99.90;;;;;;4947432;28;20462;-55
2023/03/01 10:52:32;;;;;;;3.83;3.43;;;9.70;99.90;;;;;;4950192;28;20486;-56
2023/03/01 10:55:01;;;;;;;3.70;3.40;;;10.20;99.90;;;;;;4945909;29;20545;-54
2023/03/01 10:57:35;;;;;;;4.43;3.80;;;10.40;99.90;;;;;;4948948;28;20486;-56
2023/03/01 11:00:19;;;;;;;4.37;3.30;;;9.80;99.90;;;;;;4950030;28;20466;-56
2023/03/01 11:02:49;;;;;;;4.10;2.87;;;9.20;99.90;;;;;;4952293;28;20533;-55
2023/03/01 11:05:23;;;;;;;3.93;3.53;;;10.10;99.90;;;;;;4952415;29;20538;-57
2023/03/01 11:07:53;;;;;;;3.70;3.33;;;9.70;99.90;;;;;;4953384;28;20988;-55
2023/03/01 11:10:22;;;;;;;3.60;3.17;;;9.40;99.90;;;;;;4951550;28;20473;-56
2023/03/01 11:12:50;;;;;;;3.10;2.90;;;9.10;99.90;;;;;;4943794;28;20542;-55
2023/03/01 11:15:27;;;;;;;15.33;2.80;;;8.90;99.90;;;;;;4940819;28;20499;-56
2023/03/01 11:17:55;;;;;;;3.47;3.20;;;9.00;99.90;;;;;;4950345;29;20479;-55
2023/03/01 11:20:28;;;;;;;2.80;2.60;;;8.80;99.90;;;;;;4939873;28;20887;-57
2023/03/01 11:22:58;;;;;;;3.23;2.93;;;8.70;99.90;;;;;;4945720;28;20493;-57
2023/03/01 11:25:27;;;;;;;4.17;3.77;;;9.70;99.90;;;;;;4947762;28;20518;-55
2023/03/01 11:27:55;;;;;;;6.10;5.10;;;9.10;99.90;;;;;;4948927;29;20470;-56
2023/03/01 11:30:25;;;;;;;6.00;3.30;;;9.00;99.90;;;;;;4947590;28;20472;-54
2023/03/01 11:33:03;;;;;;;5.80;3.40;;;9.10;99.90;;;;;;4950746;28;20467;-56
2023/03/01 11:35:33;;;;;;;4.33;2.90;;;8.80;99.90;;;;;;4951018;29;20495;-55
2023/03/01 11:38:10;;;;;;;5.20;4.13;;;9.70;99.90;;;;;;4948091;29;20553;-56
2023/03/01 11:40:42;;;;;;;4.40;3.03;;;10.10;99.90;;;;;;4946523;28;20549;-55
2023/03/01 11:43:17;;;;;;;3.20;2.83;;;9.00;99.90;;;;;;4947804;28;20494;-54
2023/03/01 11:45:59;;;;;;;3.50;3.20;;;9.30;99.90;;;;;;4950328;28;20482;-54
2023/03/01 11:48:44;;;;;;;5.67;2.87;;;9.20;99.90;;;;;;4953427;28;20462;-56
2023/03/01 11:51:23;;;;;;;5.83;2.60;;;9.70;99.90;;;;;;4948020;28;21152;-55
2023/03/01 11:54:00;;;;;;;3.30;3.00;;;9.50;99.90;;;;;;4951064;28;20522;-55
2023/03/01 11:56:33;;;;;;;4.07;3.50;;;9.10;99.90;;;;;;4952587;29;20537;-55
2023/03/01 11:59:32;;;;;;;2.63;2.43;;;8.90;99.90;;;;;;4949791;28;20889;-54
2023/03/01 12:02:45;;;;;;;4.97;3.30;;;8.80;99.90;;;;;;4939410;28;20960;-56
2023/03/01 12:05:50;;;;;;;4.00;3.50;;;8.60;99.90;;;;;;4925650;29;20542;-57
2023/03/01 12:08:23;;;;;;;4.70;3.80;;;8.80;99.90;;;;;;4871754;29;20522;-55
2023/03/01 12:11:02;;;;;;;3.70;3.30;;;9.10;99.90;;;;;;4941622;28;20525;-55
2023/03/01 12:13:50;;;;;;;3.07;2.87;;;9.10;99.90;;;;;;4944467;28;20454;-54
2023/03/01 12:16:27;;;;;;;7.50;3.27;;;9.30;99.90;;;;;;4950182;28;20490;-55
2023/03/01 12:19:16;;;;;;;3.80;3.33;;;9.40;99.90;;;;;;4948860;29;20459;-55
2023/03/01 12:21:58;;;;;;;4.60;3.10;;;9.80;99.90;;;;;;4952174;29;20463;-56
2023/03/01 12:24:57;;;;;;;3.63;3.10;;;10.80;99.90;;;;;;4950485;28;21071;-54
2023/03/01 12:27:41;;;;;;;3.10;2.80;;;10.70;99.90;;;;;;4947714;28;20466;-55
2023/03/01 12:30:20;;;;;;;4.03;3.30;;;11.50;99.90;;;;;;4952491;28;20467;-55
2023/03/01 12:33:00;;;;;;;5.63;2.90;;;11.70;99.90;;;;;;4947965;28;20494;-56
2023/03/01 12:35:55;;;;;;;2.90;2.63;;;10.60;99.90;;;;;;4940603;28;20486;-54
2023/03/01 12:38:34;;;;;;;6.90;3.20;;;10.60;99.90;;;;;;4941681;28;20499;-54
2023/03/01 12:41:27;;;;;;;2.60;2.40;;;10.60;99.90;;;;;;4950777;29;20495;-56
2023/03/01 12:44:04;;;;;;;2.87;2.40;;;11.10;99.90;;;;;;4939470;28;21203;-55
2023/03/01 12:46:42;;;;;;;3.00;2.77;;;10.70;99.90;;;;;;4944982;28;20545;-55
2023/03/01 12:49:13;;;;;;;3.07;2.43;;;10.40;99.90;;;;;;4949819;28;20540;-57
2023/03/01 12:51:43;;;;;;;2.47;2.27;;;10.00;99.90;;;;;;4942951;29;21029;-56
2023/03/01 12:54:16;;;;;;;3.17;2.30;;;9.90;99.90;;;;;;4943844;28;20872;-55
2023/03/01 12:56:51;;;;;;;3.77;2.50;;;11.10;99.90;;;;;;4947995;28;20502;-56
2023/03/01 12:59:23;;;;;;;1.90;1.80;;;11.00;99.90;;;;;;4940823;28;20538;-55
2023/03/01 13:01:54;;;;;;;3.60;2.33;;;10.70;99.90;;;;;;4944599;28;20457;-55